sensor_id;sensor_type;location;lat;lon;timestamp;P1;durP1;ratioP1;P2;durP2;ratioP2
28756;SDS011;44294;48.282;14.282;2023-03-23T00:01:03;10.50;;;7.50;;
28756;SDS011;44294;48.282;14.282;2023-03-23T00:03:51;11.17;;;8.00;;
28756;SDS011;44294;48.282;14.282;2023-03-23T00:06:39;12.00;;;8.00;;
28756;SDS011;44294;48.282;14.282;2023-03-23T00:09:26;12.23;;;7.77;;
28756;SDS011;44294;48.282;14.282;2023-03-23T00:12:13;12.27;;;8.43;;
28756;SDS011;44294;48.282;14.282;2023-03-23T00:15:03;12.10;;;7.70;;
28756;SDS011;44294;48.282;14.282;2023-03-23T00:17:50;11.23;;;8.40;;
28756;SDS011;44294;48.282;14.282;2023-03-23T00:20:38;11.57;;;7.90;;
28756;SDS011;44294;48.282;14.282;2023-03-23T00:23:26;11.20;;;8.10;;
28756;SDS011;44294;48.282;14.282;2023-03-23T00:26:14;10.57;;;8.10;;
28756;SDS011;44294;48.282;14.282;2023-03-23T00:29:05;15.97;;;8.40;;
28756;SDS011;44294;48.282;14.282;2023-03-23T00:31:53;13.77;;;8.60;;
28756;SDS011;44294;48.282;14.282;2023-03-23T00:34:42;12.57;;;8.70;;
28756;SDS011;44294;48.282;14.282;2023-03-23T00:37:31;13.37;;;8.33;;
28756;SDS011;44294;48.282;14.282;2023-03-23T00:40:18;13.03;;;8.50;;
28756;SDS011;44294;48.282;14.282;2023-03-23T00:43:05;11.40;;;8.23;;
28756;SDS011;44294;48.282;14.282;2023-03-23T00:45:55;11.20;;;8.50;;
28756;SDS011;44294;48.282;14.282;2023-03-23T00:48:42;11.17;;;8.57;;
28756;SDS011;44294;48.282;14.282;2023-03-23T00:51:31;13.40;;;9.17;;
28756;SDS011;44294;48.282;14.282;2023-03-23T00:54:18;14.93;;;9.60;;
28756;SDS011;44294;48.282;14.282;2023-03-23T00:57:06;12.03;;;9.03;;
28756;SDS011;44294;48.282;14.282;2023-03-23T00:59:53;15.33;;;10.20;;
28756;SDS011;44294;48.282;14.282;2023-03-23T01:02:41;16.13;;;10.70;;
28756;SDS011;44294;48.282;14.282;2023-03-23T01:05:33;13.93;;;9.77;;
28756;SDS011;44294;48.282;14.282;2023-03-23T01:08:19;13.20;;;9.67;;
28756;SDS011;44294;48.282;14.282;2023-03-23T01:11:07;15.50;;;9.70;;
28756;SDS011;44294;48.282;14.282;2023-03-23T01:13:55;18.10;;;9.70;;
28756;SDS011;44294;48.282;14.282;2023-03-23T01:16:42;13.47;;;9.63;;
28756;SDS011;44294;48.282;14.282;2023-03-23T01:19:29;14.10;;;9.13;;
28756;SDS011;44294;48.282;14.282;2023-03-23T01:22:17;15.63;;;9.20;;
28756;SDS011;44294;48.282;14.282;2023-03-23T01:25:04;15.57;;;9.50;;
28756;SDS011;44294;48.282;14.282;2023-03-23T01:27:52;12.47;;;9.17;;
28756;SDS011;44294;48.282;14.282;2023-03-23T01:30:39;13.13;;;9.43;;
28756;SDS011;44294;48.282;14.282;2023-03-23T01:33:27;14.17;;;9.20;;
28756;SDS011;44294;48.282;14.282;2023-03-23T01:36:16;14.87;;;9.57;;
28756;SDS011;44294;48.282;14.282;2023-03-23T01:39:04;12.53;;;9.10;;
28756;SDS011;44294;48.282;14.282;2023-03-23T01:41:52;12.53;;;9.50;;
28756;SDS011;44294;48.282;14.282;2023-03-23T01:47:28;12.17;;;8.60;;
28756;SDS011;44294;48.282;14.282;2023-03-23T01:50:16;13.33;;;9.17;;
28756;SDS011;44294;48.282;14.282;2023-03-23T01:53:05;11.97;;;8.80;;
28756;SDS011;44294;48.282;14.282;2023-03-23T01:55:54;12.40;;;8.47;;
28756;SDS011;44294;48.282;14.282;2023-03-23T01:58:43;10.87;;;8.50;;
28756;SDS011;44294;48.282;14.282;2023-03-23T02:01:30;10.90;;;8.00;;
28756;SDS011;44294;48.282;14.282;2023-03-23T02:04:19;13.20;;;8.60;;
28756;SDS011;44294;48.282;14.282;2023-03-23T02:07:08;14.57;;;9.10;;
28756;SDS011;44294;48.282;14.282;2023-03-23T02:09:55;12.47;;;8.43;;
28756;SDS011;44294;48.282;14.282;2023-03-23T02:12:42;12.00;;;8.87;;
28756;SDS011;44294;48.282;14.282;2023-03-23T02:15:51;12.67;;;8.90;;
28756;SDS011;44294;48.282;14.282;2023-03-23T02:24:30;12.27;;;8.50;;
28756;SDS011;44294;48.282;14.282;2023-03-23T02:39:10;15.50;;;9.10;;
28756;SDS011;44294;48.282;14.282;2023-03-23T02:42:00;13.63;;;8.80;;
28756;SDS011;44294;48.282;14.282;2023-03-23T02:44:47;12.07;;;8.53;;
28756;SDS011;44294;48.282;14.282;2023-03-23T02:47:37;15.50;;;8.33;;
28756;SDS011;44294;48.282;14.282;2023-03-23T02:50:25;12.40;;;8.63;;
28756;SDS011;44294;48.282;14.282;2023-03-23T02:53:15;11.80;;;8.20;;
28756;SDS011;44294;48.282;14.282;2023-03-23T02:56:03;12.17;;;8.47;;
28756;SDS011;44294;48.282;14.282;2023-03-23T02:58:51;11.33;;;8.33;;
28756;SDS011;44294;48.282;14.282;2023-03-23T03:04:27;9.90;;;7.57;;
28756;SDS011;44294;48.282;14.282;2023-03-23T03:07:19;10.67;;;7.90;;
28756;SDS011;44294;48.282;14.282;2023-03-23T03:10:11;10.10;;;7.43;;
28756;SDS011;44294;48.282;14.282;2023-03-23T03:16:07;11.77;;;7.93;;
28756;SDS011;44294;48.282;14.282;2023-03-23T03:21:45;10.93;;;7.87;;
28756;SDS011;44294;48.282;14.282;2023-03-23T03:24:33;14.33;;;8.30;;
28756;SDS011;44294;48.282;14.282;2023-03-23T03:27:22;10.93;;;7.80;;
28756;SDS011;44294;48.282;14.282;2023-03-23T03:30:11;10.40;;;7.70;;
28756;SDS011;44294;48.282;14.282;2023-03-23T03:33:01;11.17;;;7.90;;
28756;SDS011;44294;48.282;14.282;2023-03-23T03:35:49;12.73;;;8.37;;
28756;SDS011;44294;48.282;14.282;2023-03-23T03:38:41;12.87;;;7.93;;
28756;SDS011;44294;48.282;14.282;2023-03-23T03:41:28;10.73;;;7.70;;
28756;SDS011;44294;48.282;14.282;2023-03-23T03:44:16;10.80;;;8.13;;
28756;SDS011;44294;48.282;14.282;2023-03-23T03:47:03;10.57;;;7.80;;
28756;SDS011;44294;48.282;14.282;2023-03-23T03:49:50;10.37;;;7.80;;
28756;SDS011;44294;48.282;14.282;2023-03-23T03:52:38;12.77;;;8.03;;
28756;SDS011;44294;48.282;14.282;2023-03-23T03:55:26;10.60;;;7.80;;
28756;SDS011;44294;48.282;14.282;2023-03-23T03:58:14;11.00;;;7.67;;
28756;SDS011;44294;48.282;14.282;2023-03-23T04:01:02;12.67;;;7.97;;
28756;SDS011;44294;48.282;14.282;2023-03-23T04:03:49;10.13;;;7.70;;
28756;SDS011;44294;48.282;14.282;2023-03-23T04:06:37;10.97;;;7.70;;
28756;SDS011;44294;48.282;14.282;2023-03-23T04:09:24;11.50;;;7.70;;
28756;SDS011;44294;48.282;14.282;2023-03-23T04:12:13;11.90;;;8.03;;
28756;SDS011;44294;48.282;14.282;2023-03-23T04:15:01;10.87;;;7.83;;
28756;SDS011;44294;48.282;14.282;2023-03-23T04:17:48;11.17;;;7.90;;
28756;SDS011;44294;48.282;14.282;2023-03-23T04:20:36;13.70;;;8.50;;
28756;SDS011;44294;48.282;14.282;2023-03-23T04:23:23;10.67;;;7.93;;
28756;SDS011;44294;48.282;14.282;2023-03-23T04:26:11;12.13;;;7.70;;
28756;SDS011;44294;48.282;14.282;2023-03-23T04:28:59;11.23;;;7.60;;
28756;SDS011;44294;48.282;14.282;2023-03-23T04:31:46;12.60;;;8.10;;
28756;SDS011;44294;48.282;14.282;2023-03-23T04:34:35;14.60;;;8.47;;
28756;SDS011;44294;48.282;14.282;2023-03-23T04:37:22;12.67;;;8.20;;
28756;SDS011;44294;48.282;14.282;2023-03-23T04:40:12;13.93;;;8.17;;
28756;SDS011;44294;48.282;14.282;2023-03-23T04:43:00;13.40;;;8.80;;
28756;SDS011;44294;48.282;14.282;2023-03-23T04:45:56;12.30;;;8.60;;
28756;SDS011;44294;48.282;14.282;2023-03-23T04:48:43;12.47;;;8.77;;
28756;SDS011;44294;48.282;14.282;2023-03-23T04:51:31;12.97;;;8.43;;
28756;SDS011;44294;48.282;14.282;2023-03-23T04:54:18;13.00;;;8.10;;
28756;SDS011;44294;48.282;14.282;2023-03-23T04:57:06;13.53;;;8.73;;
28756;SDS011;44294;48.282;14.282;2023-03-23T04:59:54;15.00;;;8.40;;
28756;SDS011;44294;48.282;14.282;2023-03-23T05:02:42;14.97;;;9.10;;
28756;SDS011;44294;48.282;14.282;2023-03-23T05:05:29;15.67;;;9.20;;
28756;SDS011;44294;48.282;14.282;2023-03-23T05:08:18;16.57;;;9.50;;
28756;SDS011;44294;48.282;14.282;2023-03-23T05:11:06;14.90;;;9.40;;
28756;SDS011;44294;48.282;14.282;2023-03-23T05:13:54;16.80;;;9.30;;
28756;SDS011;44294;48.282;14.282;2023-03-23T05:16:42;13.07;;;9.10;;
28756;SDS011;44294;48.282;14.282;2023-03-23T05:19:30;16.00;;;9.57;;
28756;SDS011;44294;48.282;14.282;2023-03-23T05:22:19;13.37;;;9.73;;
28756;SDS011;44294;48.282;14.282;2023-03-23T05:25:09;19.53;;;9.90;;
28756;SDS011;44294;48.282;14.282;2023-03-23T05:27:57;14.17;;;8.80;;
28756;SDS011;44294;48.282;14.282;2023-03-23T05:30:45;13.83;;;9.10;;
28756;SDS011;44294;48.282;14.282;2023-03-23T05:33:32;13.77;;;9.37;;
28756;SDS011;44294;48.282;14.282;2023-03-23T05:36:20;14.97;;;9.43;;
28756;SDS011;44294;48.282;14.282;2023-03-23T05:39:10;14.07;;;9.30;;
28756;SDS011;44294;48.282;14.282;2023-03-23T05:41:57;14.60;;;9.33;;
28756;SDS011;44294;48.282;14.282;2023-03-23T05:44:45;15.10;;;9.00;;
28756;SDS011;44294;48.282;14.282;2023-03-23T05:47:32;12.57;;;9.00;;
28756;SDS011;44294;48.282;14.282;2023-03-23T05:50:19;13.97;;;10.07;;
28756;SDS011;44294;48.282;14.282;2023-03-23T05:53:07;14.63;;;9.80;;
28756;SDS011;44294;48.282;14.282;2023-03-23T05:55:57;21.20;;;10.50;;
28756;SDS011;44294;48.282;14.282;2023-03-23T05:58:43;16.07;;;10.80;;
28756;SDS011;44294;48.282;14.282;2023-03-23T06:01:31;18.10;;;10.37;;
28756;SDS011;44294;48.282;14.282;2023-03-23T06:04:18;13.77;;;9.77;;
28756;SDS011;44294;48.282;14.282;2023-03-23T06:07:07;17.57;;;10.97;;
28756;SDS011;44294;48.282;14.282;2023-03-23T06:09:56;14.13;;;9.40;;
28756;SDS011;44294;48.282;14.282;2023-03-23T06:12:44;15.13;;;9.43;;
28756;SDS011;44294;48.282;14.282;2023-03-23T06:15:31;15.93;;;10.00;;
28756;SDS011;44294;48.282;14.282;2023-03-23T06:18:19;15.03;;;10.00;;
28756;SDS011;44294;48.282;14.282;2023-03-23T06:21:07;16.70;;;10.90;;
28756;SDS011;44294;48.282;14.282;2023-03-23T06:23:54;18.47;;;11.33;;
28756;SDS011;44294;48.282;14.282;2023-03-23T06:26:42;19.80;;;11.73;;
28756;SDS011;44294;48.282;14.282;2023-03-23T06:29:30;20.43;;;11.67;;
28756;SDS011;44294;48.282;14.282;2023-03-23T06:32:18;21.53;;;13.43;;
28756;SDS011;44294;48.282;14.282;2023-03-23T06:35:06;21.07;;;13.40;;
28756;SDS011;44294;48.282;14.282;2023-03-23T06:37:55;18.63;;;11.77;;
28756;SDS011;44294;48.282;14.282;2023-03-23T06:40:44;18.23;;;11.97;;
28756;SDS011;44294;48.282;14.282;2023-03-23T06:43:33;17.93;;;11.17;;
28756;SDS011;44294;48.282;14.282;2023-03-23T06:46:22;19.57;;;11.50;;
28756;SDS011;44294;48.282;14.282;2023-03-23T06:49:09;16.63;;;11.27;;
28756;SDS011;44294;48.282;14.282;2023-03-23T06:51:57;18.57;;;11.63;;
28756;SDS011;44294;48.282;14.282;2023-03-23T06:54:45;17.63;;;11.57;;
28756;SDS011;44294;48.282;14.282;2023-03-23T06:57:33;23.57;;;12.53;;
28756;SDS011;44294;48.282;14.282;2023-03-23T07:00:20;17.67;;;11.37;;
28756;SDS011;44294;48.282;14.282;2023-03-23T07:03:08;22.60;;;11.70;;
28756;SDS011;44294;48.282;14.282;2023-03-23T07:05:55;19.13;;;12.00;;
28756;SDS011;44294;48.282;14.282;2023-03-23T07:08:43;19.37;;;12.10;;
28756;SDS011;44294;48.282;14.282;2023-03-23T07:11:30;21.50;;;13.00;;
28756;SDS011;44294;48.282;14.282;2023-03-23T07:14:17;23.53;;;13.60;;
28756;SDS011;44294;48.282;14.282;2023-03-23T07:17:04;21.47;;;13.60;;
28756;SDS011;44294;48.282;14.282;2023-03-23T07:19:54;25.20;;;13.37;;
28756;SDS011;44294;48.282;14.282;2023-03-23T07:22:41;22.00;;;13.60;;
28756;SDS011;44294;48.282;14.282;2023-03-23T07:25:28;26.27;;;13.87;;
28756;SDS011;44294;48.282;14.282;2023-03-23T07:28:16;21.77;;;12.63;;
28756;SDS011;44294;48.282;14.282;2023-03-23T07:31:04;23.23;;;12.43;;
28756;SDS011;44294;48.282;14.282;2023-03-23T07:33:53;22.07;;;12.57;;
28756;SDS011;44294;48.282;14.282;2023-03-23T07:36:41;19.83;;;12.60;;
28756;SDS011;44294;48.282;14.282;2023-03-23T07:39:28;21.20;;;12.90;;
28756;SDS011;44294;48.282;14.282;2023-03-23T07:42:16;21.43;;;13.23;;
28756;SDS011;44294;48.282;14.282;2023-03-23T07:45:03;19.20;;;13.10;;
28756;SDS011;44294;48.282;14.282;2023-03-23T07:47:52;23.57;;;13.57;;
28756;SDS011;44294;48.282;14.282;2023-03-23T07:50:39;22.43;;;13.77;;
28756;SDS011;44294;48.282;14.282;2023-03-23T07:53:27;20.10;;;12.47;;
28756;SDS011;44294;48.282;14.282;2023-03-23T07:56:14;21.70;;;13.43;;
28756;SDS011;44294;48.282;14.282;2023-03-23T07:59:03;22.53;;;13.77;;
28756;SDS011;44294;48.282;14.282;2023-03-23T08:01:54;26.73;;;15.60;;
28756;SDS011;44294;48.282;14.282;2023-03-23T08:04:41;23.67;;;15.47;;
28756;SDS011;44294;48.282;14.282;2023-03-23T08:07:28;26.07;;;16.70;;
28756;SDS011;44294;48.282;14.282;2023-03-23T08:10:15;29.13;;;16.43;;
28756;SDS011;44294;48.282;14.282;2023-03-23T08:13:04;28.50;;;17.10;;
28756;SDS011;44294;48.282;14.282;2023-03-23T08:15:53;28.20;;;16.77;;
28756;SDS011;44294;48.282;14.282;2023-03-23T08:18:40;30.17;;;17.40;;
28756;SDS011;44294;48.282;14.282;2023-03-23T08:21:27;28.73;;;17.07;;
28756;SDS011;44294;48.282;14.282;2023-03-23T08:24:16;29.30;;;18.00;;
28756;SDS011;44294;48.282;14.282;2023-03-23T08:27:03;32.37;;;19.63;;
28756;SDS011;44294;48.282;14.282;2023-03-23T08:29:52;30.73;;;18.80;;
28756;SDS011;44294;48.282;14.282;2023-03-23T08:32:40;36.13;;;21.17;;
28756;SDS011;44294;48.282;14.282;2023-03-23T08:35:28;35.77;;;18.50;;
28756;SDS011;44294;48.282;14.282;2023-03-23T08:38:15;30.77;;;18.00;;
28756;SDS011;44294;48.282;14.282;2023-03-23T08:41:03;30.10;;;18.23;;
28756;SDS011;44294;48.282;14.282;2023-03-23T08:43:51;30.57;;;18.83;;
28756;SDS011;44294;48.282;14.282;2023-03-23T08:46:39;36.63;;;20.77;;
28756;SDS011;44294;48.282;14.282;2023-03-23T08:49:26;36.60;;;20.43;;
28756;SDS011;44294;48.282;14.282;2023-03-23T08:52:13;33.43;;;19.70;;
28756;SDS011;44294;48.282;14.282;2023-03-23T08:55:01;34.43;;;19.33;;
28756;SDS011;44294;48.282;14.282;2023-03-23T08:57:49;31.30;;;18.77;;
28756;SDS011;44294;48.282;14.282;2023-03-23T09:00:37;30.97;;;17.00;;
28756;SDS011;44294;48.282;14.282;2023-03-23T09:03:25;30.23;;;17.20;;
28756;SDS011;44294;48.282;14.282;2023-03-23T09:06:13;41.50;;;24.83;;
28756;SDS011;44294;48.282;14.282;2023-03-23T09:09:00;20.50;;;13.63;;
28756;SDS011;44294;48.282;14.282;2023-03-23T09:11:49;20.50;;;12.57;;
28756;SDS011;44294;48.282;14.282;2023-03-23T09:14:37;21.93;;;12.13;;
28756;SDS011;44294;48.282;14.282;2023-03-23T09:17:24;23.30;;;12.83;;
28756;SDS011;44294;48.282;14.282;2023-03-23T09:20:13;20.03;;;12.07;;
28756;SDS011;44294;48.282;14.282;2023-03-23T09:23:01;25.17;;;13.00;;
28756;SDS011;44294;48.282;14.282;2023-03-23T09:25:48;20.73;;;13.07;;
28756;SDS011;44294;48.282;14.282;2023-03-23T09:28:35;27.10;;;16.93;;
28756;SDS011;44294;48.282;14.282;2023-03-23T09:31:23;16.67;;;11.70;;
28756;SDS011;44294;48.282;14.282;2023-03-23T09:34:12;19.63;;;11.57;;
28756;SDS011;44294;48.282;14.282;2023-03-23T09:37:01;18.13;;;11.93;;
28756;SDS011;44294;48.282;14.282;2023-03-23T09:39:50;24.37;;;12.60;;
28756;SDS011;44294;48.282;14.282;2023-03-23T09:42:48;23.63;;;15.53;;
28756;SDS011;44294;48.282;14.282;2023-03-23T09:45:49;27.57;;;13.33;;
28756;SDS011;44294;48.282;14.282;2023-03-23T09:48:53;24.93;;;12.20;;
28756;SDS011;44294;48.282;14.282;2023-03-23T09:51:44;36.00;;;23.03;;
28756;SDS011;44294;48.282;14.282;2023-03-23T09:54:39;23.80;;;13.97;;
28756;SDS011;44294;48.282;14.282;2023-03-23T09:57:32;25.20;;;13.37;;
28756;SDS011;44294;48.282;14.282;2023-03-23T10:00:20;21.57;;;13.67;;
28756;SDS011;44294;48.282;14.282;2023-03-23T10:03:15;24.13;;;14.30;;
28756;SDS011;44294;48.282;14.282;2023-03-23T10:06:04;20.80;;;12.67;;
28756;SDS011;44294;48.282;14.282;2023-03-23T10:08:53;21.30;;;12.00;;
28756;SDS011;44294;48.282;14.282;2023-03-23T10:17:40;19.47;;;11.67;;
28756;SDS011;44294;48.282;14.282;2023-03-23T10:32:12;18.20;;;12.50;;
28756;SDS011;44294;48.282;14.282;2023-03-23T10:35:00;17.77;;;11.07;;
28756;SDS011;44294;48.282;14.282;2023-03-23T10:37:50;22.37;;;12.17;;
28756;SDS011;44294;48.282;14.282;2023-03-23T10:40:43;18.10;;;13.00;;
28756;SDS011;44294;48.282;14.282;2023-03-23T10:43:28;22.80;;;11.77;;
28756;SDS011;44294;48.282;14.282;2023-03-23T10:46:31;19.53;;;11.33;;
28756;SDS011;44294;48.282;14.282;2023-03-23T10:49:18;19.33;;;10.80;;
28756;SDS011;44294;48.282;14.282;2023-03-23T10:52:16;16.37;;;10.07;;
28756;SDS011;44294;48.282;14.282;2023-03-23T10:55:00;16.30;;;10.70;;
28756;SDS011;44294;48.282;14.282;2023-03-23T10:57:46;15.30;;;9.80;;
28756;SDS011;44294;48.282;14.282;2023-03-23T11:00:39;14.93;;;9.40;;
28756;SDS011;44294;48.282;14.282;2023-03-23T11:06:19;13.03;;;9.27;;
28756;SDS011;44294;48.282;14.282;2023-03-23T11:09:03;19.23;;;9.57;;
28756;SDS011;44294;48.282;14.282;2023-03-23T11:11:54;11.87;;;8.63;;
28756;SDS011;44294;48.282;14.282;2023-03-23T11:14:42;17.27;;;10.70;;
28756;SDS011;44294;48.282;14.282;2023-03-23T11:17:30;12.13;;;8.27;;
28756;SDS011;44294;48.282;14.282;2023-03-23T11:20:21;12.63;;;8.13;;
28756;SDS011;44294;48.282;14.282;2023-03-23T11:23:10;11.63;;;7.93;;
28756;SDS011;44294;48.282;14.282;2023-03-23T11:28:55;12.20;;;8.10;;
28756;SDS011;44294;48.282;14.282;2023-03-23T11:31:45;12.07;;;8.20;;
28756;SDS011;44294;48.282;14.282;2023-03-23T11:34:42;12.60;;;8.23;;
28756;SDS011;44294;48.282;14.282;2023-03-23T11:37:43;11.83;;;8.43;;
28756;SDS011;44294;48.282;14.282;2023-03-23T11:40:31;14.93;;;11.23;;
28756;SDS011;44294;48.282;14.282;2023-03-23T11:43:21;13.20;;;9.40;;
28756;SDS011;44294;48.282;14.282;2023-03-23T11:46:19;13.07;;;9.27;;
28756;SDS011;44294;48.282;14.282;2023-03-23T11:49:01;12.30;;;8.87;;
28756;SDS011;44294;48.282;14.282;2023-03-23T11:51:50;12.33;;;8.50;;
28756;SDS011;44294;48.282;14.282;2023-03-23T11:54:40;10.73;;;8.37;;
28756;SDS011;44294;48.282;14.282;2023-03-23T11:57:26;12.20;;;8.53;;
28756;SDS011;44294;48.282;14.282;2023-03-23T12:00:19;11.33;;;8.10;;
28756;SDS011;44294;48.282;14.282;2023-03-23T12:06:12;11.53;;;7.70;;
28756;SDS011;44294;48.282;14.282;2023-03-23T12:15:17;13.03;;;7.70;;
28756;SDS011;44294;48.282;14.282;2023-03-23T12:18:13;11.50;;;8.60;;
28756;SDS011;44294;48.282;14.282;2023-03-23T12:21:00;13.40;;;7.20;;
28756;SDS011;44294;48.282;14.282;2023-03-23T12:23:56;11.00;;;7.13;;
28756;SDS011;44294;48.282;14.282;2023-03-23T12:26:39;12.23;;;7.47;;
28756;SDS011;44294;48.282;14.282;2023-03-23T12:29:40;12.97;;;7.87;;
28756;SDS011;44294;48.282;14.282;2023-03-23T12:32:29;12.47;;;7.87;;
28756;SDS011;44294;48.282;14.282;2023-03-23T12:35:27;11.33;;;7.57;;
28756;SDS011;44294;48.282;14.282;2023-03-23T12:38:19;12.30;;;7.47;;
28756;SDS011;44294;48.282;14.282;2023-03-23T12:41:15;11.23;;;7.57;;
28756;SDS011;44294;48.282;14.282;2023-03-23T12:44:07;9.30;;;6.20;;
28756;SDS011;44294;48.282;14.282;2023-03-23T12:53:02;8.03;;;5.37;;
28756;SDS011;44294;48.282;14.282;2023-03-23T12:55:52;9.40;;;6.37;;
28756;SDS011;44294;48.282;14.282;2023-03-23T12:58:37;10.67;;;6.57;;
28756;SDS011;44294;48.282;14.282;2023-03-23T13:01:33;9.20;;;5.80;;
28756;SDS011;44294;48.282;14.282;2023-03-23T13:04:29;10.33;;;5.90;;
28756;SDS011;44294;48.282;14.282;2023-03-23T13:07:17;7.50;;;5.10;;
28756;SDS011;44294;48.282;14.282;2023-03-23T13:10:07;6.63;;;4.87;;
28756;SDS011;44294;48.282;14.282;2023-03-23T13:12:55;7.13;;;4.40;;
28756;SDS011;44294;48.282;14.282;2023-03-23T13:15:51;5.43;;;4.23;;
28756;SDS011;44294;48.282;14.282;2023-03-23T13:18:40;5.83;;;4.60;;
28756;SDS011;44294;48.282;14.282;2023-03-23T13:21:36;6.90;;;5.37;;
28756;SDS011;44294;48.282;14.282;2023-03-23T13:24:20;6.40;;;4.40;;
28756;SDS011;44294;48.282;14.282;2023-03-23T13:27:08;6.50;;;5.00;;
28756;SDS011;44294;48.282;14.282;2023-03-23T13:29:58;7.97;;;5.30;;
28756;SDS011;44294;48.282;14.282;2023-03-23T13:32:45;7.43;;;5.10;;
28756;SDS011;44294;48.282;14.282;2023-03-23T13:35:36;7.03;;;4.60;;
28756;SDS011;44294;48.282;14.282;2023-03-23T13:38:25;5.77;;;4.60;;
28756;SDS011;44294;48.282;14.282;2023-03-23T13:41:13;5.53;;;4.53;;
28756;SDS011;44294;48.282;14.282;2023-03-23T13:44:26;6.03;;;4.80;;
28756;SDS011;44294;48.282;14.282;2023-03-23T13:47:06;6.83;;;5.37;;
28756;SDS011;44294;48.282;14.282;2023-03-23T13:49:45;8.63;;;5.23;;
28756;SDS011;44294;48.282;14.282;2023-03-23T13:52:46;6.90;;;4.97;;
28756;SDS011;44294;48.282;14.282;2023-03-23T13:58:43;6.00;;;4.97;;
28756;SDS011;44294;48.282;14.282;2023-03-23T14:01:11;5.80;;;4.70;;
28756;SDS011;44294;48.282;14.282;2023-03-23T14:03:59;7.33;;;4.70;;
28756;SDS011;44294;48.282;14.282;2023-03-23T14:06:48;7.37;;;4.90;;
28756;SDS011;44294;48.282;14.282;2023-03-23T14:09:39;9.03;;;5.60;;
28756;SDS011;44294;48.282;14.282;2023-03-23T14:12:27;10.20;;;5.40;;
28756;SDS011;44294;48.282;14.282;2023-03-23T14:15:15;6.30;;;5.07;;
28756;SDS011;44294;48.282;14.282;2023-03-23T14:18:03;6.87;;;5.10;;
28756;SDS011;44294;48.282;14.282;2023-03-23T14:20:51;6.97;;;5.30;;
28756;SDS011;44294;48.282;14.282;2023-03-23T14:23:38;7.07;;;5.00;;
28756;SDS011;44294;48.282;14.282;2023-03-23T14:26:26;7.70;;;4.90;;
28756;SDS011;44294;48.282;14.282;2023-03-23T14:29:13;9.80;;;5.77;;
28756;SDS011;44294;48.282;14.282;2023-03-23T14:32:01;8.47;;;5.13;;
28756;SDS011;44294;48.282;14.282;2023-03-23T14:34:48;6.77;;;4.80;;
28756;SDS011;44294;48.282;14.282;2023-03-23T14:37:36;8.40;;;4.87;;
28756;SDS011;44294;48.282;14.282;2023-03-23T14:40:25;6.80;;;4.70;;
28756;SDS011;44294;48.282;14.282;2023-03-23T14:43:13;6.33;;;4.87;;
28756;SDS011;44294;48.282;14.282;2023-03-23T14:46:04;5.73;;;4.33;;
28756;SDS011;44294;48.282;14.282;2023-03-23T14:48:50;5.83;;;4.03;;
28756;SDS011;44294;48.282;14.282;2023-03-23T14:51:45;6.33;;;4.10;;
28756;SDS011;44294;48.282;14.282;2023-03-23T14:54:27;5.60;;;4.43;;
28756;SDS011;44294;48.282;14.282;2023-03-23T14:57:16;7.90;;;4.00;;
28756;SDS011;44294;48.282;14.282;2023-03-23T15:00:03;8.43;;;4.67;;
28756;SDS011;44294;48.282;14.282;2023-03-23T15:02:55;5.10;;;4.17;;
28756;SDS011;44294;48.282;14.282;2023-03-23T15:05:44;5.73;;;3.80;;
28756;SDS011;44294;48.282;14.282;2023-03-23T15:08:33;8.20;;;3.90;;
28756;SDS011;44294;48.282;14.282;2023-03-23T15:11:22;5.23;;;4.20;;
28756;SDS011;44294;48.282;14.282;2023-03-23T15:17:03;5.87;;;3.40;;
28756;SDS011;44294;48.282;14.282;2023-03-23T15:19:51;3.73;;;3.10;;
28756;SDS011;44294;48.282;14.282;2023-03-23T15:22:44;3.40;;;2.83;;
28756;SDS011;44294;48.282;14.282;2023-03-23T15:28:18;4.67;;;2.80;;
28756;SDS011;44294;48.282;14.282;2023-03-23T15:31:05;3.40;;;2.57;;
28756;SDS011;44294;48.282;14.282;2023-03-23T15:33:55;2.60;;;2.40;;
28756;SDS011;44294;48.282;14.282;2023-03-23T15:36:42;2.80;;;2.50;;
28756;SDS011;44294;48.282;14.282;2023-03-23T15:39:30;2.83;;;2.50;;
28756;SDS011;44294;48.282;14.282;2023-03-23T15:42:22;3.03;;;2.27;;
28756;SDS011;44294;48.282;14.282;2023-03-23T15:48:20;3.30;;;2.30;;
28756;SDS011;44294;48.282;14.282;2023-03-23T15:50:48;2.70;;;2.27;;
28756;SDS011;44294;48.282;14.282;2023-03-23T15:53:37;3.10;;;2.63;;
28756;SDS011;44294;48.282;14.282;2023-03-23T15:56:24;7.50;;;5.80;;
28756;SDS011;44294;48.282;14.282;2023-03-23T15:59:12;4.50;;;3.53;;
28756;SDS011;44294;48.282;14.282;2023-03-23T16:01:59;4.30;;;2.90;;
28756;SDS011;44294;48.282;14.282;2023-03-23T16:04:47;2.90;;;2.20;;
28756;SDS011;44294;48.282;14.282;2023-03-23T16:07:34;3.30;;;2.30;;
28756;SDS011;44294;48.282;14.282;2023-03-23T16:10:24;2.40;;;2.20;;
28756;SDS011;44294;48.282;14.282;2023-03-23T16:13:11;3.43;;;2.47;;
28756;SDS011;44294;48.282;14.282;2023-03-23T16:15:58;2.70;;;2.37;;
28756;SDS011;44294;48.282;14.282;2023-03-23T16:18:46;2.47;;;2.27;;
28756;SDS011;44294;48.282;14.282;2023-03-23T16:21:33;4.00;;;2.40;;
28756;SDS011;44294;48.282;14.282;2023-03-23T16:24:20;2.50;;;2.30;;
28756;SDS011;44294;48.282;14.282;2023-03-23T16:27:08;3.63;;;2.33;;
28756;SDS011;44294;48.282;14.282;2023-03-23T16:29:56;3.30;;;2.30;;
28756;SDS011;44294;48.282;14.282;2023-03-23T16:32:45;2.57;;;2.37;;
28756;SDS011;44294;48.282;14.282;2023-03-23T16:35:32;2.90;;;2.23;;
28756;SDS011;44294;48.282;14.282;2023-03-23T16:38:20;3.77;;;2.47;;
28756;SDS011;44294;48.282;14.282;2023-03-23T16:41:07;2.40;;;2.17;;
28756;SDS011;44294;48.282;14.282;2023-03-23T16:43:54;2.97;;;2.20;;
28756;SDS011;44294;48.282;14.282;2023-03-23T16:46:42;4.43;;;2.33;;
28756;SDS011;44294;48.282;14.282;2023-03-23T16:49:29;3.13;;;2.30;;
28756;SDS011;44294;48.282;14.282;2023-03-23T16:52:17;3.20;;;2.30;;
28756;SDS011;44294;48.282;14.282;2023-03-23T16:55:05;3.53;;;2.40;;
28756;SDS011;44294;48.282;14.282;2023-03-23T16:57:53;4.37;;;2.50;;
28756;SDS011;44294;48.282;14.282;2023-03-23T17:00:40;3.27;;;2.50;;
28756;SDS011;44294;48.282;14.282;2023-03-23T17:03:28;3.63;;;2.67;;
28756;SDS011;44294;48.282;14.282;2023-03-23T17:06:15;4.53;;;2.50;;
28756;SDS011;44294;48.282;14.282;2023-03-23T17:09:02;3.27;;;2.30;;
28756;SDS011;44294;48.282;14.282;2023-03-23T17:11:50;2.67;;;2.40;;
28756;SDS011;44294;48.282;14.282;2023-03-23T17:14:38;2.50;;;2.30;;
28756;SDS011;44294;48.282;14.282;2023-03-23T17:17:25;7.80;;;2.80;;
28756;SDS011;44294;48.282;14.282;2023-03-23T17:20:12;3.43;;;2.90;;
28756;SDS011;44294;48.282;14.282;2023-03-23T17:23:00;4.53;;;3.07;;
28756;SDS011;44294;48.282;14.282;2023-03-23T17:25:47;3.47;;;2.80;;
28756;SDS011;44294;48.282;14.282;2023-03-23T17:28:35;7.17;;;5.53;;
28756;SDS011;44294;48.282;14.282;2023-03-23T17:31:23;6.03;;;4.57;;
28756;SDS011;44294;48.282;14.282;2023-03-23T17:34:10;3.83;;;3.43;;
28756;SDS011;44294;48.282;14.282;2023-03-23T17:36:57;3.27;;;2.87;;
28756;SDS011;44294;48.282;14.282;2023-03-23T17:39:45;4.80;;;2.70;;
28756;SDS011;44294;48.282;14.282;2023-03-23T17:42:32;3.83;;;3.00;;
28756;SDS011;44294;48.282;14.282;2023-03-23T17:45:20;4.33;;;2.90;;